Time;durP1;ratioP1;P1;durP2;ratioP2;P2;SDS_P1;SDS_P2;PMS_P1;PMS_P2;Temp;Humidity;BMP_temperature;BMP_pressure;BME280_temperature;BME280_humidity;BME280_pressure;Samples;Min_cycle;Max_cycle;Signal;HPM_P1;HPM_P2
2021/11/17 02:28:02;;;;;;;30.73;19.70;;;;;;;5.62;100.00;102151.00;4872732;29;20153;-69
2021/11/17 02:31:32;;;;;;;33.95;19.98;;;;;;;5.17;100.00;102146.38;4882103;29;20048;-69
2021/11/17 02:34:53;;;;;;;30.27;17.85;;;;;;;5.31;100.00;102149.34;4881548;29;20054;-70
2021/11/17 02:37:57;;;;;;;33.38;19.02;;;;;;;5.03;100.00;102152.88;4893848;29;20359;-69
2021/11/17 02:41:17;;;;;;;32.20;20.23;;;;;;;5.65;100.00;102151.94;4919758;29;20107;-69
2021/11/17 02:44:22;;;;;;;28.52;18.65;;;;;;;5.46;100.00;102159.25;4918496;29;20028;-70
2021/11/17 02:47:43;;;;;;;31.30;19.17;;;;;;;5.64;100.00;102160.59;4918178;29;20430;-70
2021/11/17 02:50:59;;;;;;;27.15;17.83;;;;;;;5.61;100.00;102160.50;4919009;29;20032;-70
2021/11/17 02:54:02;;;;;;;29.95;20.35;;;;;;;5.87;100.00;102164.66;4900691;29;20096;-69
2021/11/17 02:56:57;;;;;;;33.83;20.17;;;;;;;5.79;100.00;102153.16;4903245;29;20036;-69
2021/11/17 03:00:04;;;;;;;35.17;19.42;;;;;;;5.99;100.00;102161.50;4916993;29;20462;-68
2021/11/17 03:03:05;;;;;;;31.20;19.63;;;;;;;5.78;100.00;102158.34;4916594;29;20092;-70
2021/11/17 03:06:09;;;;;;;28.17;18.52;;;;;;;5.98;100.00;102151.94;4916129;29;20028;-70
2021/11/17 03:09:22;;;;;;;30.23;19.58;;;;;;;5.93;100.00;102146.63;4917964;29;20035;-69
2021/11/17 03:12:14;;;;;;;35.10;18.17;;;;;;;5.99;100.00;102138.09;4916798;29;20032;-70
2021/11/17 03:15:25;;;;;;;29.35;18.25;;;;;;;6.09;100.00;102140.94;4917217;29;20115;-70
2021/11/17 03:18:36;;;;;;;30.88;18.77;;;;;;;6.25;100.00;102137.84;4903764;29;20028;-70
2021/11/17 03:21:47;;;;;;;29.55;18.27;;;;;;;5.58;100.00;102142.22;4917090;29;20470;-69
2021/11/17 03:24:35;;;;;;;30.70;17.60;;;;;;;5.78;100.00;102132.34;4917736;29;20028;-69
2021/11/17 03:27:21;;;;;;;27.42;17.42;;;;;;;6.12;100.00;102137.50;4917263;29;20049;-70
2021/11/17 03:30:27;;;;;;;26.98;16.38;;;;;;;5.78;100.00;102140.13;4916890;29;20363;-70
2021/11/17 03:33:15;;;;;;;27.63;17.15;;;;;;;6.06;100.00;102134.78;4916701;29;20028;-70
2021/11/17 03:36:32;;;;;;;27.48;16.55;;;;;;;5.89;100.00;102144.78;4915864;29;20080;-69
2021/11/17 03:39:36;;;;;;;27.75;15.27;;;;;;;6.12;100.00;102138.41;4916236;29;20028;-69
2021/11/17 03:42:37;;;;;;;28.95;16.40;;;;;;;6.17;100.00;102139.38;4916382;29;20051;-70
2021/11/17 03:45:25;;;;;;;23.85;15.95;;;;;;;6.13;100.00;102132.34;4916911;29;20039;-69
2021/11/17 03:48:17;;;;;;;25.30;15.85;;;;;;;5.99;100.00;102130.28;4916341;29;20059;-69
2021/11/17 03:51:12;;;;;;;30.75;17.75;;;;;;;5.91;100.00;102135.28;4916044;29;20024;-69
2021/11/17 03:54:10;;;;;;;28.98;18.52;;;;;;;5.71;100.00;102138.22;4915532;29;20110;-69
2021/11/17 03:57:14;;;;;;;27.57;17.03;;;;;;;5.94;100.00;102124.09;4849617;29;1168378;-70
2021/11/17 04:00:16;;;;;;;24.90;16.35;;;;;;;6.03;100.00;102121.69;4916497;29;20104;-69
2021/11/17 04:03:13;;;;;;;25.15;16.10;;;;;;;5.98;100.00;102120.72;4917187;29;20028;-69
2021/11/17 04:06:20;;;;;;;25.23;16.13;;;;;;;5.77;100.00;102117.56;4916413;29;20103;-70
2021/11/17 04:09:15;;;;;;;27.75;16.10;;;;;;;5.85;100.00;102119.53;4904434;29;20036;-70
2021/11/17 04:12:21;;;;;;;27.08;16.02;;;;;;;5.77;100.00;102122.75;4903551;29;20114;-70
2021/11/17 04:15:32;;;;;;;24.80;15.82;;;;;;;5.20;100.00;102116.97;4904716;29;20471;-70
2021/11/17 04:18:53;;;;;;;30.90;15.55;;;;;;;5.50;100.00;102120.34;4905442;29;20051;-70
2021/11/17 04:21:57;;;;;;;22.80;15.18;;;;;;;5.65;100.00;102123.34;4862090;29;20036;-70
2021/11/17 04:25:11;;;;;;;26.55;16.65;;;;;;;5.84;100.00;102123.00;4918028;29;20032;-70
2021/11/17 04:28:09;;;;;;;28.88;17.13;;;;;;;5.79;100.00;102131.47;4917953;29;20118;-69
2021/11/17 04:31:17;;;;;;;29.15;17.05;;;;;;;5.25;100.00;102126.66;4891726;29;20043;-70
2021/11/17 04:34:27;;;;;;;26.45;18.15;;;;;;;5.79;100.00;102132.34;4906144;29;20024;-70
2021/11/17 04:37:43;;;;;;;31.60;18.25;;;;;;;5.65;100.00;102133.75;4920234;29;20024;-70
2021/11/17 04:40:53;;;;;;;26.77;17.65;;;;;;;5.58;100.00;102136.16;4907250;29;20032;-69
2021/11/17 04:44:03;;;;;;;27.65;17.05;;;;;;;5.54;100.00;102132.59;4919053;29;20459;-69
2021/11/17 04:47:34;;;;;;;34.55;18.50;;;;;;;5.52;100.00;102136.88;4921523;29;20042;-70
2021/11/17 04:50:28;;;;;;;33.08;17.70;;;;;;;5.33;100.00;102130.34;4921213;29;20432;-70
2021/11/17 04:53:59;;;;;;;32.85;19.17;;;;;;;5.36;100.00;102135.59;4920596;29;20032;-71
2021/11/17 04:57:05;;;;;;;41.70;23.20;;;;;;;5.36;100.00;102138.19;4889417;29;20036;-69
2021/11/17 05:00:00;;;;;;;34.67;20.17;;;;;;;5.17;100.00;102122.97;4906850;29;20117;-69
2021/11/17 05:03:07;;;;;;;36.17;18.48;;;;;;;5.10;100.00;102125.34;4906584;29;20039;-70
2021/11/17 05:06:11;;;;;;;33.47;19.60;;;;;;;5.01;100.00;102130.31;4907351;29;20119;-69
2021/11/17 05:09:11;;;;;;;35.95;22.10;;;;;;;4.78;100.00;102127.06;4906339;29;20032;-70
2021/11/17 05:12:09;;;;;;;36.95;20.65;;;;;;;4.81;100.00;102139.25;4918880;29;20028;-70
2021/11/17 05:14:55;;;;;;;43.10;22.60;;;;;;;4.82;100.00;102131.53;4921551;29;20039;-70
2021/11/17 05:17:56;;;;;;;39.30;22.80;;;;;;;4.89;100.00;102136.06;4905848;29;20028;-70
2021/11/17 05:20:48;;;;;;;41.80;22.08;;;;;;;4.81;100.00;102141.84;4920167;29;20463;-69
2021/11/17 05:23:58;;;;;;;37.35;22.45;;;;;;;4.81;100.00;102147.94;4919399;29;20463;-70
2021/11/17 05:26:47;;;;;;;40.85;21.83;;;;;;;4.70;100.00;102141.56;4906655;29;20024;-70
2021/11/17 05:30:18;;;;;;;33.22;21.08;;;;;;;4.95;100.00;102149.19;4918968;29;20106;-71
2021/11/17 05:33:29;;;;;;;34.20;21.13;;;;;;;4.83;100.00;102154.03;4856256;29;20033;-70
2021/11/17 05:36:33;;;;;;;39.30;21.88;;;;;;;4.56;100.00;102155.84;4849469;29;20024;-70
2021/11/17 05:39:24;;;;;;;39.40;22.63;;;;;;;4.34;100.00;102168.16;4919737;29;20032;-70
2021/11/17 05:42:25;;;;;;;36.30;21.75;;;;;;;4.86;100.00;102161.91;4918783;29;20047;-70
2021/11/17 05:45:23;;;;;;;39.80;23.02;;;;;;;4.66;100.00;102164.78;4917783;29;20071;-69
2021/11/17 05:48:22;;;;;;;35.20;22.42;;;;;;;5.27;100.00;102169.13;4919871;29;20060;-70
2021/11/17 05:51:17;;;;;;;42.05;24.60;;;;;;;5.11;100.00;102164.38;4919260;29;20367;-70
2021/11/17 05:54:10;;;;;;;46.17;25.90;;;;;;;5.36;100.00;102171.13;4905611;29;20024;-70
2021/11/17 06:12:29;;;;;;;52.38;25.70;;;;;;;5.87;100.00;102163.78;5631498;23;20075;-70
2021/11/17 06:15:16;;;;;;;46.47;24.20;;;;;;;5.79;100.00;102155.75;4938680;29;20106;-70
2021/11/17 06:18:04;;;;;;;43.42;25.17;;;;;;;6.05;100.00;102156.41;4937414;29;20122;-70
2021/11/17 06:20:50;;;;;;;43.95;25.75;;;;;;;5.74;100.00;102161.72;4925028;29;20059;-71
2021/11/17 06:23:45;;;;;;;37.20;21.23;;;;;;;6.36;100.00;102170.19;4937338;29;20127;-71
2021/11/17 06:26:36;;;;;;;44.45;21.48;;;;;;;6.48;100.00;102167.88;4937297;29;20058;-69
2021/11/17 06:29:28;;;;;;;35.30;20.13;;;;;;;6.48;100.00;102154.84;4937000;29;20028;-69
2021/11/17 06:32:15;;;;;;;37.30;20.77;;;;;;;6.40;100.00;102159.00;4937102;29;20032;-69
2021/11/17 06:35:03;;;;;;;36.55;20.60;;;;;;;6.33;100.00;102154.50;4936204;29;20039;-69
2021/11/17 06:37:50;;;;;;;39.72;22.15;;;;;;;6.58;100.00;102154.19;4936314;29;20344;-69
2021/11/17 06:40:43;;;;;;;36.63;22.27;;;;;;;6.36;100.00;102151.97;4937998;29;20522;-69
2021/11/17 06:43:30;;;;;;;35.35;19.90;;;;;;;6.10;100.00;102152.22;4937312;29;20114;-70
2021/11/17 06:46:16;;;;;;;37.83;21.25;;;;;;;7.01;100.00;102158.56;4924231;29;20094;-70
2021/11/17 06:49:02;;;;;;;38.30;20.83;;;;;;;6.63;100.00;102149.09;4938056;29;20304;-69
2021/11/17 06:51:48;;;;;;;32.70;19.63;;;;;;;6.16;100.00;102157.56;4937829;29;20024;-69
2021/11/17 06:54:34;;;;;;;31.98;19.67;;;;;;;6.34;100.00;102160.59;4936729;29;20031;-69
2021/11/17 06:57:20;;;;;;;35.50;21.25;;;;;;;6.20;100.00;102149.88;4937237;29;20359;-69
2021/11/17 07:00:13;;;;;;;42.38;21.70;;;;;;;6.71;100.00;102144.91;4936562;29;20035;-70
2021/11/17 07:02:59;;;;;;;33.65;21.20;;;;;;;6.98;100.00;102145.44;4936943;29;20467;-70
2021/11/17 07:05:45;;;;;;;44.88;24.70;;;;;;;6.91;100.00;102148.81;4923606;29;20110;-70
2021/11/17 07:08:31;;;;;;;33.45;20.83;;;;;;;7.18;100.00;102150.22;4937877;29;20058;-70
2021/11/17 07:11:16;;;;;;;30.83;20.10;;;;;;;7.33;100.00;102155.72;4937469;29;20082;-70
2021/11/17 07:14:07;;;;;;;34.33;20.38;;;;;;;7.68;100.00;102153.75;4937373;29;20056;-70
2021/11/17 07:16:53;;;;;;;29.80;18.88;;;;;;;7.60;100.00;102156.19;4936159;29;20031;-69
2021/11/17 07:19:39;;;;;;;35.33;20.10;;;;;;;7.82;100.00;102160.03;4937044;29;20027;-70
2021/11/17 07:22:25;;;;;;;33.90;18.23;;;;;;;8.03;100.00;102157.78;4935669;29;20031;-70
2021/11/17 07:25:17;;;;;;;46.90;21.65;;;;;;;8.22;100.00;102144.19;4937991;29;20066;-70
2021/11/17 07:28:04;;;;;;;51.00;24.30;;;;;;;8.21;100.00;102150.28;4936342;29;20024;-70
2021/11/17 07:30:50;;;;;;;33.25;19.42;;;;;;;8.35;100.00;102140.91;4936989;29;20031;-70
2021/11/17 07:33:36;;;;;;;36.88;21.00;;;;;;;8.50;100.00;102135.88;4936033;29;20070;-69
2021/11/17 07:36:22;;;;;;;41.15;22.23;;;;;;;8.20;100.00;102146.75;4938294;29;20028;-69
2021/11/17 07:39:13;;;;;;;39.65;23.40;;;;;;;8.66;100.00;102143.97;4924159;29;20036;-69
2021/11/17 07:41:59;;;;;;;44.53;21.58;;;;;;;8.75;100.00;102137.97;4935854;29;20035;-70
2021/11/17 07:44:47;;;;;;;44.28;24.13;;;;;;;8.55;100.00;102136.81;4936032;29;20450;-70
2021/11/17 07:47:33;;;;;;;34.90;20.63;;;;;;;7.98;100.00;102134.25;4937150;29;20031;-69
2021/11/17 07:50:20;;;;;;;38.17;21.52;;;;;;;8.32;100.00;102131.28;4937037;29;20062;-69
2021/11/17 07:53:07;;;;;;;34.53;19.63;;;;;;;7.95;100.00;102144.63;4935879;29;20062;-70
2021/11/17 07:55:55;;;;;;;34.33;19.48;;;;;;;8.28;100.00;102145.16;4936032;29;20027;-70
2021/11/17 07:58:45;;;;;;;33.45;17.23;;;;;;;8.59;100.00;102141.22;4936134;29;20032;-70
2021/11/17 08:01:34;;;;;;;30.08;17.95;;;;;;;8.86;100.00;102138.97;4923215;29;20031;-69
2021/11/17 08:04:24;;;;;;;34.20;16.98;;;;;;;8.00;100.00;102142.09;4935853;29;20039;-70
2021/11/17 08:07:14;;;;;;;30.58;16.98;;;;;;;8.79;100.00;102145.88;4936660;29;20057;-71
2021/11/17 08:09:59;;;;;;;28.60;15.82;;;;;;;8.93;100.00;102143.44;4926119;29;20039;-70
2021/11/17 08:12:45;;;;;;;30.88;16.90;;;;;;;8.23;100.00;102138.09;4927166;29;20051;-70
2021/11/17 08:15:32;;;;;;;31.25;17.52;;;;;;;7.72;100.00;102160.75;4940847;29;20115;-69
2021/11/17 08:18:18;;;;;;;37.75;18.67;;;;;;;7.82;100.00;102157.44;4939527;29;20035;-71
2021/11/17 08:21:05;;;;;;;30.65;17.90;;;;;;;7.45;100.00;102155.06;4940308;29;20042;-70
2021/11/17 08:23:51;;;;;;;36.00;17.98;;;;;;;8.24;100.00;102147.72;4939802;29;20031;-70
2021/11/17 08:26:36;;;;;;;37.45;17.73;;;;;;;8.20;100.00;102146.75;4940513;29;20114;-70
2021/11/17 08:29:22;;;;;;;42.33;18.55;;;;;;;8.83;100.00;102152.00;4926873;29;20374;-71
2021/11/17 08:32:08;;;;;;;38.15;16.60;;;;;;;8.12;100.00;102153.59;4939372;29;20091;-70
2021/11/17 08:34:54;;;;;;;31.38;16.70;;;;;;;7.93;100.00;102150.66;4940198;29;20063;-69
2021/11/17 08:37:40;;;;;;;34.80;16.35;;;;;;;8.16;100.00;102144.09;4926666;29;20031;-69
2021/11/17 08:40:38;;;;;;;33.45;18.70;;;;;;;7.91;100.00;102147.16;4926910;29;20122;-70
2021/11/17 08:43:25;;;;;;;38.90;18.33;;;;;;;8.17;100.00;102138.00;4939344;29;20019;-71
2021/11/17 08:46:11;;;;;;;38.08;19.20;;;;;;;8.54;100.00;102137.69;4940118;29;20122;-70
2021/11/17 08:48:57;;;;;;;34.90;19.80;;;;;;;9.04;100.00;102137.44;4940411;29;20426;-71
2021/11/17 08:51:43;;;;;;;42.47;20.15;;;;;;;9.30;100.00;102129.88;4941038;29;20039;-70
2021/11/17 08:54:29;;;;;;;38.17;17.45;;;;;;;9.50;100.00;102124.00;4926664;29;20175;-69
2021/11/17 08:57:19;;;;;;;35.33;16.25;;;;;;;9.55;100.00;102131.88;4926245;29;20359;-70
2021/11/17 09:00:08;;;;;;;36.05;16.33;;;;;;;9.78;100.00;102127.72;4938375;29;20094;-71
2021/11/17 09:02:56;;;;;;;28.70;15.45;;;;;;;10.16;100.00;102128.03;4938451;29;20070;-69
2021/11/17 09:05:46;;;;;;;32.03;15.63;;;;;;;10.20;100.00;102133.28;4938376;29;20120;-70
2021/11/17 09:08:33;;;;;;;30.77;15.50;;;;;;;10.12;100.00;102132.38;4938698;29;20481;-70
2021/11/17 09:11:20;;;;;;;36.00;15.15;;;;;;;9.71;100.00;102129.41;4926148;29;20077;-70
2021/11/17 09:14:07;;;;;;;28.23;14.82;;;;;;;9.36;100.00;102124.69;4938132;29;20047;-70
2021/11/17 09:16:53;;;;;;;26.40;15.30;;;;;;;9.79;100.00;102121.63;4938556;29;20340;-71
2021/11/17 09:19:38;;;;;;;29.70;15.50;;;;;;;9.95;100.00;102116.53;4938134;29;20042;-71
2021/11/17 09:22:25;;;;;;;30.63;14.93;;;;;;;9.67;100.00;102122.41;4939653;29;20027;-70
2021/11/17 09:25:11;;;;;;;32.60;16.58;;;;;;;9.50;100.00;102110.03;4938630;29;20036;-71
2021/11/17 09:27:57;;;;;;;27.65;15.27;;;;;;;9.69;100.00;102104.09;4925253;29;20058;-71
2021/11/17 09:30:43;;;;;;;26.45;15.82;;;;;;;10.45;100.00;102097.66;4938332;29;20057;-70
2021/11/17 09:33:30;;;;;;;32.97;13.73;;;;;;;10.35;100.00;102091.47;4939555;29;20024;-69
2021/11/17 09:36:19;;;;;;;25.08;12.82;;;;;;;10.87;100.00;102096.06;4937703;29;20107;-71
2021/11/17 09:39:07;;;;;;;28.83;13.90;;;;;;;11.00;100.00;102092.63;4939045;29;20038;-68
2021/11/17 09:41:54;;;;;;;23.40;12.52;;;;;;;10.10;100.00;102082.59;4924988;29;20039;-70
2021/11/17 09:44:43;;;;;;;25.67;13.23;;;;;;;10.36;100.00;102085.38;4938872;29;20100;-71
2021/11/17 09:47:31;;;;;;;27.65;13.88;;;;;;;11.06;100.00;102084.78;4937971;29;20351;-70
2021/11/17 09:50:32;;;;;;;20.73;11.80;;;;;;;10.94;100.00;102081.22;4938464;29;20442;-70
2021/11/17 09:53:26;;;;;;;20.42;11.88;;;;;;;10.97;100.00;102084.72;4938825;29;20378;-70
2021/11/17 09:56:20;;;;;;;23.58;12.85;;;;;;;11.20;100.00;102080.41;4937647;29;20023;-70
2021/11/17 09:59:17;;;;;;;26.58;12.23;;;;;;;11.51;100.00;102083.94;4938159;29;20036;-69
2021/11/17 10:02:10;;;;;;;20.17;11.02;;;;;;;11.05;100.00;102069.88;4925322;29;20036;-70
2021/11/17 10:05:07;;;;;;;30.02;13.07;;;;;;;11.09;100.00;102063.78;4924957;29;20050;-70
2021/11/17 10:14:24;;;;;;;29.70;10.50;;;;;;;11.60;100.00;102045.47;4938432;29;20079;-70
2021/11/17 10:17:31;;;;;;;32.67;10.50;;;;;;;11.04;100.00;102046.28;4937770;29;20383;-70
2021/11/17 10:20:27;;;;;;;34.00;10.43;;;;;;;11.42;100.00;102028.84;4937118;29;20039;-70
2021/11/17 10:23:21;;;;;;;32.95;11.32;;;;;;;11.24;100.00;102040.19;4937522;29;20042;-70
2021/11/17 10:26:11;;;;;;;27.88;8.25;;;;;;;11.37;100.00;102028.81;4937661;29;20107;-70
2021/11/17 10:29:06;;;;;;;35.40;10.88;;;;;;;11.81;100.00;102019.19;4937902;29;20114;-70
2021/11/17 10:32:03;;;;;;;33.75;10.00;;;;;;;11.67;100.00;102014.84;4936826;29;20429;-70
2021/11/17 10:34:55;;;;;;;39.05;11.50;;;;;;;11.29;100.00;102017.44;4922758;29;20031;-70
2021/11/17 10:37:46;;;;;;;19.80;9.02;;;;;;;11.59;100.00;102012.22;4938602;29;20114;-69
2021/11/17 10:40:54;;;;;;;23.75;9.60;;;;;;;11.83;100.00;102017.47;4922480;29;20028;-70
2021/11/17 10:43:56;;;;;;;33.05;13.27;;;;;;;11.62;100.00;102011.38;4937888;29;20114;-70
2021/11/17 10:46:51;;;;;;;19.73;8.77;;;;;;;12.14;100.00;102002.50;4936792;29;20028;-70
2021/11/17 10:49:47;;;;;;;20.15;7.82;;;;;;;11.96;100.00;102010.41;4937593;29;20038;-70
2021/11/17 10:53:05;;;;;;;24.88;8.80;;;;;;;12.53;100.00;101994.41;4937751;29;20031;-69
2021/11/17 10:55:53;;;;;;;21.17;8.30;;;;;;;12.53;100.00;101997.94;4923047;29;20470;-70
2021/11/17 10:58:43;;;;;;;19.13;8.00;;;;;;;11.35;100.00;101987.72;4938229;29;20098;-70
2021/11/17 11:01:39;;;;;;;20.65;7.80;;;;;;;12.11;100.00;101982.38;4936739;29;20034;-69
2021/11/17 11:04:30;;;;;;;11.82;6.95;;;;;;;12.38;100.00;101984.84;4937592;29;20032;-70
2021/11/17 11:07:22;;;;;;;13.60;7.55;;;;;;;12.44;100.00;101984.84;4937059;29;20027;-72
2021/11/17 11:10:31;;;;;;;14.52;6.90;;;;;;;11.78;100.00;101986.84;4936983;29;20032;-70
2021/11/17 11:13:45;;;;;;;28.65;8.80;;;;;;;11.38;100.00;101969.34;4937138;29;20047;-70
2021/11/17 11:16:43;;;;;;;29.27;8.77;;;;;;;12.30;100.00;101967.41;4937290;29;20031;-72
2021/11/17 11:19:31;;;;;;;16.75;8.70;;;;;;;12.61;100.00;101969.84;4923258;29;20043;-70
2021/11/17 11:22:19;;;;;;;26.90;9.55;;;;;;;12.57;100.00;101969.84;4936246;29;20031;-69
2021/11/17 11:25:43;;;;;;;29.25;10.93;;;;;;;13.46;100.00;101959.53;4936343;29;20354;-69
2021/11/17 11:28:47;;;;;;;20.65;7.10;;;;;;;12.61;100.00;101959.31;4937620;29;20106;-70
2021/11/17 11:31:42;;;;;;;16.02;7.38;;;;;;;12.80;100.00;101968.84;4936787;29;20401;-69
2021/11/17 11:34:37;;;;;;;35.00;8.20;;;;;;;12.93;100.00;101964.34;4935984;29;20034;-71
2021/11/17 11:37:23;;;;;;;24.13;7.15;;;;;;;13.24;100.00;101961.53;4937055;29;20110;-71
2021/11/17 11:40:18;;;;;;;18.63;7.07;;;;;;;13.53;100.00;101956.88;4937037;29;20032;-71
2021/11/17 11:43:03;;;;;;;15.85;6.90;;;;;;;13.32;100.00;101957.06;4937122;29;20027;-70
2021/11/17 11:45:53;;;;;;;17.05;7.75;;;;;;;13.04;100.00;101967.81;4935836;29;20450;-69
2021/11/17 11:49:05;;;;;;;11.18;5.88;;;;;;;13.20;100.00;101951.91;4936490;29;20122;-70
2021/11/17 11:52:07;;;;;;;27.85;7.90;;;;;;;13.09;100.00;101947.59;4935752;29;20450;-71
2021/11/17 11:54:56;;;;;;;25.80;8.02;;;;;;;13.82;100.00;101959.16;4936491;29;20031;-70
2021/11/17 11:57:53;;;;;;;26.20;7.40;;;;;;;12.24;100.00;101951.63;4924495;29;20028;-70
2021/11/17 12:00:39;;;;;;;33.33;8.55;;;;;;;12.17;100.00;101940.28;4937211;29;20095;-70
2021/11/17 12:03:28;;;;;;;23.70;7.82;;;;;;;13.03;100.00;101929.25;4936709;29;20051;-70
2021/11/17 12:06:21;;;;;;;19.40;7.75;;;;;;;12.73;100.00;101935.56;4921482;29;20394;-70
2021/11/17 12:09:16;;;;;;;14.88;6.18;;;;;;;13.38;100.00;101935.09;4936215;29;20043;-70
2021/11/17 12:12:21;;;;;;;15.20;6.57;;;;;;;12.98;100.00;101923.16;4934259;29;20508;-70
2021/11/17 12:15:33;;;;;;;26.85;8.07;;;;;;;13.26;100.00;101928.16;4935835;29;20036;-70
2021/11/17 12:18:20;;;;;;;25.95;10.35;;;;;;;13.47;100.00;101929.72;4935722;29;20028;-70
2021/11/17 12:21:15;;;;;;;25.77;7.88;;;;;;;12.74;100.00;101931.19;4936403;29;20043;-69
2021/11/17 12:24:13;;;;;;;28.05;7.72;;;;;;;12.99;100.00;101920.50;4935592;29;20027;-69
2021/11/17 12:27:10;;;;;;;14.85;6.10;;;;;;;12.49;100.00;101924.34;4922646;29;20035;-71
2021/11/17 12:30:05;;;;;;;18.13;6.78;;;;;;;12.81;100.00;101933.75;4935135;29;20041;-70
2021/11/17 12:33:00;;;;;;;19.90;7.70;;;;;;;12.76;100.00;101930.31;4923876;29;20062;-72
2021/11/17 12:36:00;;;;;;;29.13;9.32;;;;;;;12.31;100.00;101922.72;4922085;29;20036;-70
2021/11/17 12:38:46;;;;;;;25.48;7.43;;;;;;;12.13;100.00;101925.41;4936672;29;20040;-70
2021/11/17 12:41:36;;;;;;;18.40;6.57;;;;;;;12.64;100.00;101926.88;4921771;29;20513;-70
2021/11/17 12:44:27;;;;;;;21.90;8.20;;;;;;;12.43;100.00;101920.00;4921208;29;20118;-71
2021/11/17 12:47:20;;;;;;;14.30;6.43;;;;;;;13.07;100.00;101910.78;4936717;29;20098;-70
2021/11/17 12:50:15;;;;;;;14.23;6.28;;;;;;;12.51;100.00;101918.22;4921639;29;20031;-71
2021/11/17 12:53:09;;;;;;;20.42;7.10;;;;;;;11.75;100.00;101915.94;4935669;29;20036;-69
2021/11/17 12:56:02;;;;;;;14.30;6.60;;;;;;;12.18;100.00;101910.50;4939170;29;20114;-70
2021/11/17 12:58:54;;;;;;;17.77;6.65;;;;;;;12.22;100.00;101911.38;4939156;29;20038;-70
2021/11/17 13:01:44;;;;;;;13.57;6.53;;;;;;;12.12;100.00;101907.91;4939149;29;20481;-69
2021/11/17 13:04:41;;;;;;;14.75;6.32;;;;;;;12.32;100.00;101906.06;4925505;29;20036;-70
2021/11/17 13:07:47;;;;;;;13.85;5.90;;;;;;;12.34;100.00;101906.06;4939805;29;20035;-71
2021/11/17 13:10:33;;;;;;;42.72;9.82;;;;;;;12.53;100.00;101902.41;4939703;29;20027;-71
2021/11/17 13:13:18;;;;;;;20.10;7.75;;;;;;;12.42;100.00;101905.09;4939614;29;20062;-70
2021/11/17 13:16:11;;;;;;;30.27;10.10;;;;;;;12.47;100.00;101903.34;4939586;29;20023;-69
2021/11/17 13:19:17;;;;;;;22.35;7.85;;;;;;;12.04;100.00;101904.44;4925561;29;20043;-71
2021/11/17 13:22:33;;;;;;;20.38;7.97;;;;;;;12.47;100.00;101895.47;4939449;29;20411;-70
2021/11/17 13:25:20;;;;;;;25.25;7.75;;;;;;;12.19;100.00;101891.25;4938739;29;20032;-71
2021/11/17 13:28:06;;;;;;;16.80;8.27;;;;;;;12.87;100.00;101899.50;4939913;29;20031;-71
2021/11/17 13:30:52;;;;;;;40.45;11.98;;;;;;;12.11;100.00;101898.28;4938606;29;20091;-70
2021/11/17 13:33:38;;;;;;;35.22;9.23;;;;;;;11.74;100.00;101908.94;4940019;29;20031;-70
2021/11/17 13:36:55;;;;;;;36.30;10.52;;;;;;;11.61;100.00;101905.47;4926049;29;20107;-70
2021/11/17 13:39:41;;;;;;;21.58;7.72;;;;;;;11.64;100.00;101908.09;4935734;29;20119;-69
2021/11/17 13:42:28;;;;;;;42.90;10.52;;;;;;;11.22;100.00;101902.91;4938164;29;20028;-70
2021/11/17 13:45:20;;;;;;;41.15;11.02;;;;;;;11.80;100.00;101903.66;4938422;29;20050;-71
2021/11/17 13:48:07;;;;;;;27.17;9.43;;;;;;;11.71;100.00;101907.22;4937883;29;20034;-71
2021/11/17 13:50:54;;;;;;;22.88;7.80;;;;;;;11.71;100.00;101906.31;4938663;29;20027;-70
2021/11/17 13:53:41;;;;;;;43.30;9.52;;;;;;;11.63;100.00;101898.47;4938016;29;20039;-70
2021/11/17 13:56:31;;;;;;;19.58;7.53;;;;;;;11.61;100.00;101899.38;4937747;29;20023;-71
2021/11/17 13:59:18;;;;;;;20.40;6.78;;;;;;;11.21;100.00;101901.16;4924049;29;20505;-71
2021/11/17 14:02:05;;;;;;;18.85;6.93;;;;;;;11.00;100.00;101893.31;4924872;29;20032;-73
2021/11/17 14:04:51;;;;;;;19.20;6.93;;;;;;;11.07;100.00;101895.06;4937182;29;20032;-70
2021/11/17 14:07:36;;;;;;;14.68;6.97;;;;;;;11.05;100.00;101890.69;4938737;29;20102;-71
2021/11/17 14:10:23;;;;;;;11.70;6.57;;;;;;;11.01;100.00;101886.31;4938052;29;20454;-70
2021/11/17 14:13:09;;;;;;;19.50;8.02;;;;;;;10.82;100.00;101892.44;4923943;29;20111;-71
2021/11/17 14:15:55;;;;;;;27.15;15.73;;;;;;;11.07;100.00;101891.56;4938816;29;20429;-70
2021/11/17 14:18:42;;;;;;;17.90;6.97;;;;;;;10.84;100.00;101902.03;4925111;29;20054;-71
2021/11/17 14:21:27;;;;;;;14.00;6.72;;;;;;;10.79;100.00;101895.94;4924071;29;20032;-71
2021/11/17 14:24:14;;;;;;;10.77;6.90;;;;;;;10.55;100.00;101897.66;4938320;29;20028;-70
2021/11/17 14:27:03;;;;;;;15.15;7.00;;;;;;;10.51;100.00;101906.38;4924953;29;20363;-70
2021/11/17 14:29:53;;;;;;;11.32;5.97;;;;;;;10.70;100.00;101902.91;4922598;29;20023;-70
2021/11/17 14:32:42;;;;;;;15.38;7.30;;;;;;;11.08;100.00;101909.03;4938380;29;20024;-70
2021/11/17 14:35:28;;;;;;;15.35;7.45;;;;;;;11.03;100.00;101900.28;4937630;29;20027;-70
2021/11/17 14:38:17;;;;;;;13.45;8.18;;;;;;;10.57;100.00;101895.91;4938366;29;20066;-71
2021/11/17 14:41:04;;;;;;;16.48;8.55;;;;;;;10.86;100.00;101900.31;4924407;29;20035;-71
2021/11/17 14:43:50;;;;;;;40.35;22.20;;;;;;;10.65;100.00;101902.91;4925031;29;20036;-70
2021/11/17 14:46:37;;;;;;;25.42;15.70;;;;;;;10.78;100.00;101899.44;4937791;29;20438;-72
2021/11/17 14:49:23;;;;;;;34.58;16.98;;;;;;;10.73;100.00;101903.78;4936587;29;20081;-72
2021/11/17 14:52:14;;;;;;;37.08;20.67;;;;;;;10.87;100.00;101894.19;4938169;29;20023;-70
2021/11/17 14:54:59;;;;;;;25.20;12.57;;;;;;;10.67;100.00;101882.81;4938213;29;20114;-70
2021/11/17 14:57:46;;;;;;;24.02;12.05;;;;;;;10.65;100.00;101889.78;4941261;29;20028;-70
2021/11/17 15:00:40;;;;;;;26.38;12.70;;;;;;;10.72;100.00;101890.69;4937180;29;20020;-70
2021/11/17 15:03:26;;;;;;;26.92;12.57;;;;;;;10.18;100.00;101897.56;4936553;29;20042;-70
2021/11/17 15:06:13;;;;;;;31.65;19.35;;;;;;;10.18;100.00;101894.09;4922311;29;20031;-70
2021/11/17 15:09:00;;;;;;;28.42;13.38;;;;;;;10.46;100.00;101897.63;4937922;29;20031;-70
2021/11/17 15:11:56;;;;;;;31.75;17.77;;;;;;;10.59;100.00;101897.66;4937273;29;20027;-70
2021/11/17 15:14:44;;;;;;;25.15;14.48;;;;;;;10.54;100.00;101896.78;4923410;29;20114;-70
2021/11/17 15:17:30;;;;;;;88.15;57.65;;;;;;;10.47;100.00;101904.63;4936586;29;20039;-73
2021/11/17 15:20:16;;;;;;;56.78;34.83;;;;;;;10.44;100.00;101905.50;4940740;29;20028;-71
2021/11/17 15:23:04;;;;;;;40.65;22.20;;;;;;;10.54;100.00;101898.53;4922529;29;20429;-69
2021/11/17 15:25:51;;;;;;;30.92;17.83;;;;;;;10.14;100.00;101911.53;4936631;29;20044;-72
2021/11/17 15:28:41;;;;;;;31.42;16.50;;;;;;;10.04;100.00;101908.84;4936363;29;20130;-70
2021/11/17 15:31:30;;;;;;;25.25;15.43;;;;;;;9.99;100.00;101902.72;4923776;29;20384;-70
2021/11/17 15:34:16;;;;;;;30.73;17.75;;;;;;;10.25;100.00;101908.06;4922582;29;20063;-70
2021/11/17 15:37:02;;;;;;;29.48;19.23;;;;;;;9.84;100.00;101910.50;4923857;29;20080;-69
2021/11/17 15:39:47;;;;;;;28.50;14.95;;;;;;;10.11;100.00;101905.41;4937535;29;20415;-69
2021/11/17 15:42:34;;;;;;;20.75;12.02;;;;;;;10.02;100.00;101905.34;4937130;29;20035;-72
2021/11/17 15:45:21;;;;;;;23.30;12.32;;;;;;;9.70;100.00;101906.97;4923397;29;20358;-70
2021/11/17 15:48:08;;;;;;;19.73;12.57;;;;;;;9.97;100.00;101907.94;4935746;29;20024;-69
2021/11/17 15:51:04;;;;;;;20.15;12.27;;;;;;;9.66;100.00;101910.44;4935788;29;20032;-70
2021/11/17 15:53:50;;;;;;;23.75;12.90;;;;;;;9.72;100.00;101919.19;4936378;29;20407;-71
2021/11/17 15:56:38;;;;;;;24.80;12.63;;;;;;;10.03;100.00;101920.19;4923572;29;20059;-71